Time;durP1;ratioP1;P1;durP2;ratioP2;P2;SDS_P1;SDS_P2;PMS_P1;PMS_P2;Temp;Humidity;BMP_temperature;BMP_pressure;BME280_temperature;BME280_humidity;BME280_pressure;Samples;Min_cycle;Max_cycle;Signal;HPM_P1;HPM_P2
2022/03/10 00:01:22;;;;;;;20.50;9.43;;;6.50;90.90;;;;;;7388780;19;20138;-74
2022/03/10 00:03:48;;;;;;;21.43;9.30;;;6.50;90.90;;;;;;7387089;19;20138;-74
2022/03/10 00:06:13;;;;;;;18.00;9.43;;;6.40;91.30;;;;;;7387009;19;20610;-73
2022/03/10 00:08:39;;;;;;;20.73;9.27;;;6.50;91.30;;;;;;7388464;19;20309;-73
2022/03/10 00:11:06;;;;;;;19.27;9.97;;;6.20;91.20;;;;;;7389302;19;20134;-73
2022/03/10 00:13:31;;;;;;;15.70;8.63;;;6.10;91.70;;;;;;7388349;19;20163;-71
2022/03/10 00:15:59;;;;;;;15.80;8.87;;;6.00;91.80;;;;;;7390093;19;20523;-72
2022/03/10 00:18:28;;;;;;;17.10;8.70;;;6.20;91.70;;;;;;7388595;19;20169;-75
2022/03/10 00:20:54;;;;;;;18.67;8.87;;;6.20;91.60;;;;;;7390377;19;20143;-73
2022/03/10 00:23:21;;;;;;;18.30;9.87;;;6.20;91.40;;;;;;7387637;19;20149;-73
2022/03/10 00:25:47;;;;;;;17.43;8.70;;;6.00;91.70;;;;;;7387917;19;20153;-74
2022/03/10 00:28:13;;;;;;;24.00;10.00;;;5.90;92.10;;;;;;7386343;19;20626;-73
2022/03/10 00:30:39;;;;;;;25.27;10.57;;;6.10;91.90;;;;;;7388792;19;20204;-72
2022/03/10 00:33:05;;;;;;;23.10;9.87;;;5.90;91.90;;;;;;7388260;19;20134;-72
2022/03/10 00:35:31;;;;;;;18.70;9.40;;;5.60;92.10;;;;;;7387045;19;20131;-73
2022/03/10 00:37:58;;;;;;;20.70;9.60;;;5.60;92.40;;;;;;7390773;19;20160;-73
2022/03/10 00:40:24;;;;;;;16.23;9.87;;;5.70;92.40;;;;;;7389509;19;20146;-74
2022/03/10 00:42:50;;;;;;;16.67;8.90;;;5.80;92.20;;;;;;7391256;19;20497;-72
2022/03/10 00:45:19;;;;;;;20.10;10.40;;;5.80;92.30;;;;;;7391239;19;20159;-73
2022/03/10 00:47:46;;;;;;;16.93;9.70;;;5.90;92.10;;;;;;7386885;19;20482;-73
2022/03/10 00:50:12;;;;;;;18.13;9.37;;;6.00;92.30;;;;;;7387856;19;20142;-74
2022/03/10 00:52:46;;;;;;;19.20;9.63;;;6.00;92.00;;;;;;7387898;19;20194;-73
2022/03/10 00:55:15;;;;;;;17.87;9.53;;;5.80;92.20;;;;;;7387409;19;20909;-72
2022/03/10 00:57:41;;;;;;;14.57;7.87;;;5.80;92.40;;;;;;7390392;19;20226;-73
2022/03/10 01:00:09;;;;;;;17.50;8.90;;;6.00;92.40;;;;;;7388907;19;20143;-75
2022/03/10 01:02:37;;;;;;;15.63;8.63;;;5.90;92.20;;;;;;7386769;19;20376;-75
2022/03/10 01:05:04;;;;;;;16.43;9.87;;;5.70;92.30;;;;;;7387118;19;20135;-73
2022/03/10 01:07:30;;;;;;;15.50;8.27;;;5.60;93.00;;;;;;7386160;19;20134;-73
2022/03/10 01:09:55;;;;;;;16.93;8.87;;;5.60;92.70;;;;;;7386257;19;20618;-72
2022/03/10 01:12:21;;;;;;;18.07;8.57;;;5.80;92.80;;;;;;7386344;19;20613;-72
2022/03/10 01:14:48;;;;;;;22.47;9.13;;;5.80;92.70;;;;;;7386128;19;20154;-73
2022/03/10 01:17:13;;;;;;;20.57;9.30;;;5.90;92.50;;;;;;7388871;19;20161;-73
2022/03/10 01:19:39;;;;;;;16.47;9.30;;;5.60;92.50;;;;;;7389072;19;20668;-72
2022/03/10 01:22:07;;;;;;;19.63;9.57;;;5.60;92.70;;;;;;7386625;19;20483;-73
2022/03/10 01:24:34;;;;;;;19.70;8.93;;;5.70;92.80;;;;;;7384467;19;20139;-73
2022/03/10 01:26:59;;;;;;;18.80;9.53;;;5.80;92.50;;;;;;7386105;19;20133;-73
2022/03/10 01:29:25;;;;;;;17.90;9.60;;;5.80;92.20;;;;;;7385013;19;20218;-72
2022/03/10 01:31:51;;;;;;;18.70;9.83;;;5.70;92.50;;;;;;7386423;19;20162;-72
2022/03/10 01:34:17;;;;;;;18.57;9.77;;;5.50;92.70;;;;;;7385412;19;20139;-74
2022/03/10 01:36:43;;;;;;;16.37;9.00;;;5.30;92.90;;;;;;7387583;19;20127;-72
2022/03/10 01:39:08;;;;;;;15.90;8.80;;;5.20;93.10;;;;;;7387756;19;20164;-73
2022/03/10 01:41:35;;;;;;;19.50;9.47;;;5.40;93.40;;;;;;7387421;19;20701;-73
2022/03/10 01:44:08;;;;;;;15.97;8.97;;;5.50;93.20;;;;;;7386635;19;20511;-72
2022/03/10 01:46:35;;;;;;;19.40;9.17;;;5.60;93.20;;;;;;7385376;19;20131;-73
2022/03/10 01:49:01;;;;;;;18.10;9.30;;;5.60;93.00;;;;;;7384906;19;20471;-72
2022/03/10 01:51:30;;;;;;;16.83;9.50;;;5.30;93.30;;;;;;7385558;19;20123;-73
2022/03/10 01:53:56;;;;;;;17.93;9.20;;;5.30;93.60;;;;;;7384903;19;20137;-73
2022/03/10 01:56:24;;;;;;;18.80;10.00;;;5.40;93.60;;;;;;7385497;19;20150;-73
2022/03/10 01:58:52;;;;;;;21.77;9.63;;;5.60;93.40;;;;;;7391570;19;20135;-74
2022/03/10 02:01:18;;;;;;;14.93;8.63;;;5.60;93.30;;;;;;7385279;19;20131;-72
2022/03/10 02:03:45;;;;;;;20.43;9.47;;;5.40;93.20;;;;;;7384055;19;20185;-73
2022/03/10 02:06:12;;;;;;;17.43;8.43;;;5.30;93.60;;;;;;7384307;19;20578;-73
2022/03/10 02:11:22;;;;;;;19.87;10.03;;;5.10;94.10;;;;;;7384211;19;20141;-70
2022/03/10 02:13:48;;;;;;;18.20;9.07;;;5.10;94.50;;;;;;7385526;19;20655;-72
2022/03/10 02:19:02;;;;;;;19.03;9.70;;;5.10;94.20;;;;;;7390171;19;20134;-72
2022/03/10 02:21:27;;;;;;;16.53;9.20;;;5.00;94.40;;;;;;7385573;19;20134;-73
2022/03/10 02:23:53;;;;;;;17.37;9.23;;;5.20;94.30;;;;;;7382321;19;20221;-72
2022/03/10 02:26:19;;;;;;;17.77;9.17;;;5.20;94.10;;;;;;7382436;19;20135;-73
2022/03/10 02:28:46;;;;;;;19.97;9.77;;;5.30;94.20;;;;;;7381330;19;20173;-73
2022/03/10 02:31:12;;;;;;;18.10;9.20;;;5.60;93.90;;;;;;7383553;19;20143;-73
2022/03/10 02:33:38;;;;;;;22.73;9.20;;;5.70;93.70;;;;;;7382899;19;20646;-72
2022/03/10 02:36:04;;;;;;;17.23;8.93;;;5.70;93.60;;;;;;7384811;19;20131;-72
2022/03/10 02:38:31;;;;;;;18.60;10.43;;;5.70;93.70;;;;;;7386982;19;20222;-72
2022/03/10 02:40:57;;;;;;;18.03;9.83;;;5.60;93.90;;;;;;7383415;19;20162;-73
2022/03/10 02:43:23;;;;;;;21.77;10.20;;;5.60;93.80;;;;;;7386149;19;20146;-71
2022/03/10 02:45:50;;;;;;;18.93;8.67;;;5.50;93.90;;;;;;7383140;19;20142;-71
2022/03/10 02:48:16;;;;;;;17.50;9.13;;;5.50;94.20;;;;;;7383246;19;20154;-72
2022/03/10 02:50:43;;;;;;;15.67;9.23;;;5.30;94.00;;;;;;7382941;19;20581;-73
2022/03/10 02:53:10;;;;;;;17.87;9.47;;;5.00;94.40;;;;;;7382885;19;20138;-72
2022/03/10 02:55:40;;;;;;;17.27;9.87;;;4.90;94.90;;;;;;7381910;19;20147;-73
2022/03/10 02:58:05;;;;;;;19.03;9.00;;;4.90;94.80;;;;;;7384463;19;20150;-71
2022/03/10 03:00:31;;;;;;;20.57;10.20;;;4.80;95.10;;;;;;7383239;19;20608;-72
2022/03/10 03:02:57;;;;;;;20.93;9.47;;;4.90;95.40;;;;;;7383253;19;20143;-72
2022/03/10 03:05:23;;;;;;;19.00;8.90;;;5.10;94.90;;;;;;7382751;19;20142;-71
2022/03/10 03:07:49;;;;;;;16.33;9.40;;;5.30;94.60;;;;;;7383966;19;20143;-72
2022/03/10 03:10:15;;;;;;;16.43;9.27;;;5.30;94.60;;;;;;7389922;19;20142;-72
2022/03/10 03:12:50;;;;;;;17.50;9.83;;;5.40;94.40;;;;;;7389965;19;20602;-72
2022/03/10 03:15:17;;;;;;;18.20;9.90;;;5.40;94.30;;;;;;7389411;19;20142;-73
2022/03/10 03:17:43;;;;;;;19.27;9.17;;;5.30;94.40;;;;;;7395379;19;20131;-72
2022/03/10 03:20:14;;;;;;;15.90;9.13;;;5.20;94.70;;;;;;7398019;19;20142;-72
2022/03/10 03:22:44;;;;;;;16.23;9.37;;;5.30;94.70;;;;;;7390953;19;20619;-71
2022/03/10 03:25:14;;;;;;;20.53;9.17;;;5.20;94.70;;;;;;7392338;19;20134;-72
2022/03/10 03:27:43;;;;;;;17.83;9.30;;;5.10;94.80;;;;;;7387293;19;20170;-72
2022/03/10 03:30:09;;;;;;;17.53;9.47;;;5.10;94.90;;;;;;7389226;19;20138;-71
2022/03/10 03:32:35;;;;;;;18.30;9.67;;;4.90;95.20;;;;;;7390837;19;20130;-73
2022/03/10 03:35:02;;;;;;;19.27;9.80;;;4.90;95.40;;;;;;7389438;19;20194;-72
2022/03/10 03:37:27;;;;;;;22.00;10.13;;;5.00;95.10;;;;;;7388152;19;20147;-73
2022/03/10 03:39:53;;;;;;;21.27;9.60;;;5.10;95.00;;;;;;7394941;19;20574;-72
2022/03/10 03:42:19;;;;;;;16.70;8.97;;;5.10;95.00;;;;;;7391725;19;20506;-73
2022/03/10 03:44:45;;;;;;;17.87;9.60;;;5.10;94.80;;;;;;7388716;19;20470;-73
2022/03/10 03:47:11;;;;;;;16.07;8.60;;;5.10;95.00;;;;;;7387622;19;20148;-72
2022/03/10 03:49:37;;;;;;;19.83;9.00;;;5.10;95.00;;;;;;7389983;19;20158;-72
2022/03/10 03:52:03;;;;;;;16.20;8.17;;;4.90;95.20;;;;;;7391912;19;20138;-73
2022/03/10 03:54:29;;;;;;;16.27;9.27;;;4.60;95.80;;;;;;7389248;19;20145;-71
2022/03/10 03:56:55;;;;;;;16.77;9.00;;;4.50;96.30;;;;;;7392483;19;20220;-72
2022/03/10 03:59:21;;;;;;;18.80;9.77;;;4.70;96.20;;;;;;7391267;19;20688;-73
2022/03/10 04:01:47;;;;;;;16.07;9.00;;;4.60;96.00;;;;;;7393324;19;20156;-73
2022/03/10 04:04:13;;;;;;;15.87;9.23;;;4.60;96.20;;;;;;7389330;19;20137;-72
2022/03/10 04:06:38;;;;;;;20.23;9.40;;;4.60;96.10;;;;;;7388440;19;20126;-74
2022/03/10 04:09:04;;;;;;;20.37;8.97;;;4.50;96.50;;;;;;7389887;19;20190;-73
2022/03/10 04:11:30;;;;;;;18.80;9.33;;;4.70;96.30;;;;;;7389226;19;20517;-73
2022/03/10 04:13:56;;;;;;;15.40;8.83;;;4.80;96.00;;;;;;7389400;19;20168;-73
2022/03/10 04:16:22;;;;;;;16.67;8.27;;;4.70;96.20;;;;;;7388988;19;20135;-73
2022/03/10 04:18:48;;;;;;;15.53;8.40;;;4.40;96.40;;;;;;7385220;19;20135;-72
2022/03/10 04:21:14;;;;;;;22.10;10.27;;;4.60;96.30;;;;;;7388809;19;20135;-73
2022/03/10 04:23:40;;;;;;;16.60;9.03;;;4.50;96.40;;;;;;7392740;19;20130;-73
2022/03/10 04:26:05;;;;;;;14.07;8.00;;;4.60;96.20;;;;;;7388937;19;20127;-72
2022/03/10 04:28:31;;;;;;;17.10;9.03;;;4.70;96.10;;;;;;7388128;19;20177;-72
2022/03/10 04:30:57;;;;;;;17.73;8.37;;;4.60;96.20;;;;;;7387447;19;20126;-71
2022/03/10 04:33:23;;;;;;;16.37;8.53;;;4.40;96.20;;;;;;7387402;19;20154;-72
2022/03/10 04:35:51;;;;;;;17.27;8.47;;;4.30;96.40;;;;;;7388715;19;20141;-71
2022/03/10 04:38:17;;;;;;;18.63;8.90;;;4.30;96.70;;;;;;7387351;19;20154;-74
2022/03/10 04:40:43;;;;;;;16.33;8.83;;;4.60;96.40;;;;;;7389027;19;20185;-73
2022/03/10 04:43:09;;;;;;;17.97;8.87;;;4.50;96.30;;;;;;7393202;19;20135;-71
2022/03/10 04:45:34;;;;;;;18.60;8.87;;;4.40;96.50;;;;;;7386711;19;20666;-73
2022/03/10 04:48:02;;;;;;;17.20;8.37;;;4.30;96.50;;;;;;7386416;19;20150;-73
2022/03/10 04:50:29;;;;;;;13.40;7.97;;;4.10;96.70;;;;;;7386546;19;20549;-73
2022/03/10 04:52:54;;;;;;;14.60;7.33;;;4.20;96.90;;;;;;7388569;19;20590;-71
2022/03/10 04:55:20;;;;;;;15.07;7.83;;;4.50;96.40;;;;;;7386091;19;20134;-72
2022/03/10 04:57:46;;;;;;;12.33;6.47;;;4.50;96.10;;;;;;7388288;19;20129;-74
2022/03/10 05:00:14;;;;;;;20.17;8.43;;;4.20;96.60;;;;;;7387987;19;20134;-71
2022/03/10 05:02:40;;;;;;;20.53;9.30;;;4.10;97.10;;;;;;7391367;19;20216;-72
2022/03/10 05:05:11;;;;;;;18.30;8.83;;;4.50;96.70;;;;;;7386510;19;20217;-73
2022/03/10 05:07:36;;;;;;;16.40;8.90;;;4.70;96.40;;;;;;7384780;19;20135;-72
2022/03/10 05:10:03;;;;;;;17.03;8.10;;;4.80;96.10;;;;;;7387425;19;20219;-73
2022/03/10 05:12:29;;;;;;;15.10;8.23;;;4.80;95.90;;;;;;7387271;19;20137;-73
2022/03/10 05:14:55;;;;;;;14.90;8.07;;;4.40;96.20;;;;;;7387476;19;20198;-71
2022/03/10 05:17:23;;;;;;;15.10;7.97;;;4.30;96.40;;;;;;7386598;19;20142;-74
2022/03/10 05:19:52;;;;;;;17.27;9.37;;;4.20;96.60;;;;;;7385604;19;20138;-72
2022/03/10 05:22:19;;;;;;;19.00;9.47;;;4.60;96.70;;;;;;7385108;19;20139;-73
2022/03/10 05:24:44;;;;;;;18.97;10.07;;;4.80;96.70;;;;;;7386743;19;20518;-72
2022/03/10 05:27:10;;;;;;;17.40;9.17;;;4.80;96.30;;;;;;7389539;19;20134;-72
2022/03/10 05:29:40;;;;;;;22.10;10.40;;;4.80;96.40;;;;;;7383815;19;20135;-72
2022/03/10 05:32:09;;;;;;;18.00;9.20;;;4.70;96.20;;;;;;7384691;19;20198;-72
2022/03/10 05:34:34;;;;;;;16.53;8.70;;;4.60;96.50;;;;;;7386523;19;20190;-72
2022/03/10 05:37:00;;;;;;;17.53;8.90;;;4.60;96.60;;;;;;7385134;19;20130;-72
2022/03/10 05:39:26;;;;;;;20.00;10.07;;;4.50;96.60;;;;;;7384753;19;20134;-72
2022/03/10 05:41:52;;;;;;;16.40;9.23;;;4.50;96.50;;;;;;7385165;19;20149;-72
2022/03/10 05:44:17;;;;;;;21.47;9.73;;;4.40;96.70;;;;;;7383731;19;20131;-72
2022/03/10 05:46:43;;;;;;;18.73;10.00;;;4.40;96.90;;;;;;7384344;19;20205;-72
2022/03/10 05:49:09;;;;;;;19.30;9.97;;;4.50;96.70;;;;;;7384329;19;20608;-74
2022/03/10 05:51:36;;;;;;;19.33;10.40;;;4.50;96.70;;;;;;7384635;19;20136;-73
2022/03/10 05:54:03;;;;;;;21.43;9.43;;;4.50;96.70;;;;;;7387272;19;20582;-72
2022/03/10 05:56:29;;;;;;;19.07;9.10;;;4.40;96.90;;;;;;7383325;19;20143;-71
2022/03/10 05:58:54;;;;;;;20.57;9.83;;;4.40;96.80;;;;;;7387463;19;20521;-72
2022/03/10 06:01:20;;;;;;;23.57;9.83;;;4.50;96.60;;;;;;7384535;19;20440;-73
2022/03/10 06:03:46;;;;;;;19.30;9.13;;;4.40;96.70;;;;;;7387900;19;20131;-73
2022/03/10 06:06:13;;;;;;;15.47;8.43;;;4.40;96.60;;;;;;7383203;19;20186;-70
2022/03/10 06:08:39;;;;;;;19.67;10.20;;;4.00;97.10;;;;;;7383784;19;20256;-72
2022/03/10 06:11:07;;;;;;;18.97;9.83;;;4.10;97.00;;;;;;7383346;19;20137;-73
2022/03/10 06:13:34;;;;;;;18.53;10.17;;;4.40;96.70;;;;;;7384301;19;20158;-72
2022/03/10 06:16:00;;;;;;;19.83;10.73;;;4.40;96.40;;;;;;7384554;19;20142;-72
2022/03/10 06:18:26;;;;;;;16.73;9.70;;;4.50;96.50;;;;;;7387357;19;20232;-72
2022/03/10 06:20:52;;;;;;;21.60;10.10;;;4.50;96.30;;;;;;7383556;19;20134;-72
2022/03/10 06:23:17;;;;;;;23.40;11.63;;;4.60;96.10;;;;;;7383288;19;20134;-71
2022/03/10 06:25:43;;;;;;;20.33;10.63;;;4.60;96.00;;;;;;7387585;19;20134;-71
2022/03/10 06:28:09;;;;;;;24.13;10.63;;;4.50;96.40;;;;;;7381604;19;20190;-71
2022/03/10 06:30:35;;;;;;;18.77;9.80;;;4.30;97.00;;;;;;7385054;19;20170;-72
2022/03/10 06:33:01;;;;;;;22.00;10.43;;;4.30;97.00;;;;;;7388478;19;20494;-71
2022/03/10 06:35:28;;;;;;;21.13;10.57;;;4.60;96.60;;;;;;7382396;19;20150;-72
2022/03/10 06:37:54;;;;;;;19.07;10.40;;;4.60;96.40;;;;;;7386191;19;20150;-73
2022/03/10 06:40:20;;;;;;;17.77;10.27;;;4.60;96.50;;;;;;7389678;19;20443;-73
2022/03/10 06:42:46;;;;;;;21.80;10.70;;;4.60;96.50;;;;;;7387990;19;20143;-71
2022/03/10 06:45:11;;;;;;;23.60;10.83;;;4.60;96.60;;;;;;7392644;19;20169;-71
2022/03/10 06:47:37;;;;;;;22.13;10.70;;;4.60;96.20;;;;;;7390172;19;20210;-72
2022/03/10 06:50:06;;;;;;;18.80;10.03;;;4.50;96.50;;;;;;7391516;19;20270;-72
2022/03/10 06:52:32;;;;;;;21.77;10.90;;;4.60;96.40;;;;;;7391095;19;20155;-72
2022/03/10 06:54:58;;;;;;;21.03;10.57;;;4.50;96.40;;;;;;7393114;19;20150;-72
2022/03/10 06:57:24;;;;;;;21.10;10.50;;;4.50;96.50;;;;;;7391606;19;20151;-71
2022/03/10 06:59:50;;;;;;;17.70;10.33;;;4.50;96.50;;;;;;7389915;19;20605;-72
2022/03/10 07:02:19;;;;;;;20.67;11.87;;;4.60;96.70;;;;;;7392620;19;20411;-73
2022/03/10 07:04:44;;;;;;;21.70;10.77;;;4.40;97.40;;;;;;7400195;19;20155;-73
2022/03/10 07:07:11;;;;;;;21.43;10.93;;;4.50;96.70;;;;;;7391807;19;20147;-71
2022/03/10 07:09:37;;;;;;;22.87;10.90;;;4.50;96.90;;;;;;7393198;19;20161;-72
2022/03/10 07:12:03;;;;;;;20.37;10.47;;;4.60;96.70;;;;;;7389302;19;20206;-76
2022/03/10 07:14:28;;;;;;;23.23;11.33;;;4.70;96.40;;;;;;7391715;19;20579;-73
2022/03/10 07:16:54;;;;;;;20.50;10.77;;;4.80;96.60;;;;;;7391421;19;20142;-71
2022/03/10 07:19:20;;;;;;;20.17;10.47;;;4.90;96.30;;;;;;7391944;19;20150;-74
2022/03/10 07:21:46;;;;;;;22.10;10.77;;;4.90;96.10;;;;;;7393435;19;20180;-72
2022/03/10 07:24:12;;;;;;;19.47;10.40;;;4.90;96.10;;;;;;7390388;19;20179;-72
2022/03/10 07:26:38;;;;;;;18.00;10.43;;;4.90;96.20;;;;;;7393175;19;20155;-73
2022/03/10 07:29:04;;;;;;;20.67;9.97;;;4.90;96.00;;;;;;7389125;19;20178;-72
2022/03/10 07:31:31;;;;;;;20.27;10.47;;;4.90;96.00;;;;;;7390678;19;20766;-73
2022/03/10 07:33:57;;;;;;;21.03;10.57;;;4.80;95.90;;;;;;7392552;19;20143;-73
2022/03/10 07:36:23;;;;;;;21.30;11.73;;;4.90;95.90;;;;;;7391395;19;20207;-72
2022/03/10 07:38:48;;;;;;;20.20;11.07;;;4.90;95.90;;;;;;7390912;19;20155;-72
2022/03/10 07:41:14;;;;;;;23.40;11.47;;;5.00;96.00;;;;;;7395142;19;20856;-71
2022/03/10 07:43:40;;;;;;;21.50;11.00;;;5.00;95.80;;;;;;7387799;19;20206;-72
2022/03/10 07:46:06;;;;;;;21.67;11.40;;;5.00;95.50;;;;;;7389740;19;20142;-73
2022/03/10 07:48:33;;;;;;;23.87;11.27;;;5.10;95.40;;;;;;7395648;19;20657;-73
2022/03/10 07:50:59;;;;;;;15.63;9.87;;;5.10;95.40;;;;;;7388887;19;20524;-72
2022/03/10 07:53:25;;;;;;;21.77;11.63;;;5.10;95.60;;;;;;7389569;19;20127;-73
2022/03/10 07:55:54;;;;;;;22.53;11.00;;;5.10;95.60;;;;;;7388622;19;20171;-74
2022/03/10 07:58:25;;;;;;;24.50;10.67;;;5.20;95.30;;;;;;7390538;19;20223;-74
2022/03/10 08:00:54;;;;;;;22.67;11.20;;;5.40;95.00;;;;;;7390003;19;20167;-74
2022/03/10 08:03:27;;;;;;;20.50;10.83;;;5.50;94.70;;;;;;7390348;19;20143;-73
2022/03/10 08:05:55;;;;;;;21.27;11.37;;;5.50;95.00;;;;;;7389751;19;20139;-73
2022/03/10 08:08:21;;;;;;;22.33;10.80;;;5.60;94.60;;;;;;7391227;19;20155;-74
2022/03/10 08:10:47;;;;;;;21.27;11.83;;;5.70;94.30;;;;;;7396719;19;20142;-71
2022/03/10 08:13:13;;;;;;;19.70;10.93;;;5.70;94.20;;;;;;7388308;19;20138;-73
2022/03/10 08:15:40;;;;;;;21.53;12.03;;;5.80;94.20;;;;;;7389475;19;20573;-72
2022/03/10 08:18:06;;;;;;;21.43;11.20;;;5.80;94.00;;;;;;7386687;19;20130;-72
2022/03/10 08:20:32;;;;;;;27.33;11.20;;;6.00;93.90;;;;;;7386323;19;20127;-73
2022/03/10 08:22:58;;;;;;;22.27;11.30;;;6.00;93.60;;;;;;7387188;19;20150;-73
2022/03/10 08:25:25;;;;;;;24.90;12.00;;;6.20;93.40;;;;;;7391117;19;20142;-73
2022/03/10 08:27:51;;;;;;;20.57;10.37;;;6.20;93.20;;;;;;7384881;19;20182;-73
2022/03/10 08:30:17;;;;;;;17.33;10.63;;;6.30;93.10;;;;;;7390079;19;20154;-72
2022/03/10 08:32:44;;;;;;;17.77;10.43;;;6.30;92.90;;;;;;7387054;19;20547;-73
2022/03/10 08:35:10;;;;;;;22.30;10.80;;;6.30;92.90;;;;;;7386228;19;20154;-73
2022/03/10 08:37:36;;;;;;;18.50;10.80;;;6.40;92.90;;;;;;7385755;19;20255;-75
2022/03/10 08:40:03;;;;;;;21.47;10.57;;;6.50;93.30;;;;;;7383939;19;20134;-74
2022/03/10 08:42:29;;;;;;;24.33;13.77;;;6.60;92.90;;;;;;7389079;19;20411;-74
2022/03/10 08:44:54;;;;;;;21.93;11.43;;;6.70;92.90;;;;;;7382946;19;20131;-73
2022/03/10 08:47:20;;;;;;;19.03;11.17;;;6.80;92.80;;;;;;7386716;19;20610;-73
2022/03/10 08:49:46;;;;;;;19.27;10.93;;;6.90;92.70;;;;;;7389572;19;20150;-73
2022/03/10 08:52:13;;;;;;;18.83;10.37;;;6.90;92.60;;;;;;7391915;19;20233;-73
2022/03/10 08:54:40;;;;;;;21.33;10.97;;;7.00;92.80;;;;;;7389300;19;20161;-75
2022/03/10 08:57:09;;;;;;;20.53;11.10;;;7.00;92.70;;;;;;7387838;19;20306;-73
2022/03/10 08:59:34;;;;;;;21.60;11.00;;;7.10;92.60;;;;;;7391031;19;20131;-74
2022/03/10 09:02:00;;;;;;;18.67;11.83;;;7.20;92.60;;;;;;7388267;19;20127;-73
2022/03/10 09:04:29;;;;;;;19.93;10.70;;;7.30;92.50;;;;;;7388610;19;20151;-73
2022/03/10 09:06:57;;;;;;;21.60;10.60;;;7.40;92.30;;;;;;7387040;19;20134;-73
2022/03/10 09:09:24;;;;;;;21.40;10.77;;;7.60;92.30;;;;;;7390710;19;20248;-73
2022/03/10 09:11:51;;;;;;;21.30;10.53;;;7.70;92.10;;;;;;7388035;19;20197;-74
2022/03/10 09:14:17;;;;;;;18.87;9.80;;;7.90;92.00;;;;;;7393378;19;20135;-74
2022/03/10 09:16:45;;;;;;;18.50;8.93;;;7.90;91.90;;;;;;7385626;19;20158;-75
2022/03/10 09:19:11;;;;;;;15.00;8.77;;;8.00;91.90;;;;;;7388585;19;20166;-74
2022/03/10 09:21:37;;;;;;;16.80;9.13;;;8.30;91.60;;;;;;7387485;19;20376;-73
2022/03/10 09:24:04;;;;;;;17.00;9.27;;;8.40;91.30;;;;;;7387553;19;20172;-72
2022/03/10 09:26:30;;;;;;;16.33;9.17;;;8.40;91.20;;;;;;7387307;19;20560;-73
2022/03/10 09:28:55;;;;;;;13.87;8.27;;;8.60;91.50;;;;;;7386816;19;20194;-73
2022/03/10 09:31:22;;;;;;;14.93;8.93;;;8.80;91.10;;;;;;7389079;19;20634;-73
2022/03/10 09:33:48;;;;;;;18.83;8.97;;;8.90;91.00;;;;;;7389693;19;20209;-73
2022/03/10 09:36:14;;;;;;;18.50;9.37;;;9.00;90.90;;;;;;7389471;19;20172;-72
2022/03/10 09:38:40;;;;;;;17.13;8.47;;;9.10;90.70;;;;;;7389085;19;20501;-73
2022/03/10 09:41:06;;;;;;;15.30;8.67;;;9.20;90.70;;;;;;7387725;19;20137;-72
2022/03/10 09:43:35;;;;;;;14.70;8.77;;;9.40;90.70;;;;;;7385729;19;20162;-73
2022/03/10 09:46:01;;;;;;;16.67;8.87;;;9.50;90.30;;;;;;7384887;19;20622;-73
2022/03/10 09:48:28;;;;;;;18.17;8.83;;;9.70;90.20;;;;;;7386424;19;20134;-73
2022/03/10 09:50:55;;;;;;;16.63;9.53;;;9.80;90.20;;;;;;7391199;19;20139;-72
2022/03/10 09:53:21;;;;;;;13.07;8.17;;;9.90;89.90;;;;;;7388398;19;20154;-73
2022/03/10 09:55:49;;;;;;;18.30;9.47;;;10.10;89.60;;;;;;7386706;19;20160;-73
2022/03/10 09:58:15;;;;;;;13.90;9.07;;;10.20;89.30;;;;;;7387624;19;20147;-73
2022/03/10 10:00:41;;;;;;;13.90;7.90;;;10.30;89.10;;;;;;7386599;19;20169;-72
2022/03/10 10:03:08;;;;;;;17.73;9.03;;;10.50;88.50;;;;;;7388652;19;20138;-74
2022/03/10 10:05:39;;;;;;;18.43;8.27;;;10.60;88.10;;;;;;7387308;19;20637;-73
2022/03/10 10:08:18;;;;;;;14.63;8.00;;;10.60;88.20;;;;;;7387954;19;20171;-72
2022/03/10 10:10:46;;;;;;;16.07;8.67;;;10.70;89.00;;;;;;7388446;19;20222;-73
2022/03/10 10:13:34;;;;;;;12.33;7.33;;;10.80;88.60;;;;;;7382355;19;20127;-78
2022/03/10 10:16:12;;;;;;;13.20;8.07;;;10.80;89.50;;;;;;7381297;19;20246;-73
2022/03/10 10:18:39;;;;;;;13.77;8.27;;;11.10;89.30;;;;;;7389034;19;20122;-73
2022/03/10 10:21:06;;;;;;;12.33;7.63;;;11.30;86.60;;;;;;7389656;19;20707;-74
2022/03/10 10:23:34;;;;;;;10.87;6.77;;;11.40;85.80;;;;;;7391122;19;20142;-72
2022/03/10 10:26:03;;;;;;;13.20;6.83;;;11.40;85.60;;;;;;7391345;19;20130;-72
2022/03/10 10:28:36;;;;;;;10.83;6.00;;;11.50;85.70;;;;;;7394155;19;20174;-73
2022/03/10 10:31:08;;;;;;;10.27;6.30;;;11.50;86.40;;;;;;7396469;19;20155;-72
2022/03/10 10:33:35;;;;;;;9.17;5.47;;;11.70;86.40;;;;;;7400648;19;20146;-73
2022/03/10 10:36:34;;;;;;;9.23;5.50;;;12.00;83.80;;;;;;7398573;19;20617;-74
2022/03/10 10:39:13;;;;;;;8.63;4.90;;;12.00;83.50;;;;;;7389999;19;20173;-74
2022/03/10 10:41:41;;;;;;;11.30;5.20;;;12.10;85.40;;;;;;7395874;19;20500;-73
2022/03/10 10:44:09;;;;;;;7.70;4.83;;;12.20;82.50;;;;;;7390980;19;20130;-73
2022/03/10 10:46:44;;;;;;;8.47;5.60;;;12.40;82.20;;;;;;7389321;19;20127;-74
2022/03/10 10:49:18;;;;;;;7.80;4.80;;;12.40;81.50;;;;;;7390659;19;20129;-74
2022/03/10 10:51:45;;;;;;;9.63;5.03;;;12.50;81.90;;;;;;7391011;19;20217;-73
2022/03/10 10:54:21;;;;;;;4.97;3.80;;;12.70;81.20;;;;;;7389995;19;20190;-73
2022/03/10 10:56:47;;;;;;;4.83;3.47;;;12.80;79.50;;;;;;7391873;19;20788;-73
2022/03/10 10:59:35;;;;;;;5.87;3.80;;;13.00;79.40;;;;;;7393467;19;20515;-73
2022/03/10 11:02:12;;;;;;;6.37;3.40;;;13.20;79.00;;;;;;7391581;19;20130;-73
2022/03/10 11:04:43;;;;;;;4.63;3.63;;;13.20;79.10;;;;;;7389413;19;20621;-74
2022/03/10 11:07:10;;;;;;;5.85;2.90;;;13.50;78.00;;;;;;7388442;19;20212;-73
2022/03/10 11:09:37;;;;;;;4.97;2.30;;;13.50;77.00;;;;;;7390124;19;20615;-73
2022/03/10 11:12:04;;;;;;;2.53;2.13;;;13.50;75.60;;;;;;7392813;19;20586;-73
2022/03/10 11:14:30;;;;;;;3.80;2.33;;;13.40;74.90;;;;;;7393566;19;20622;-75
2022/03/10 11:16:58;;;;;;;2.47;1.80;;;13.40;74.50;;;;;;7390885;19;20142;-73
2022/03/10 11:19:26;;;;;;;2.57;1.90;;;13.50;74.10;;;;;;7389200;19;20130;-75
2022/03/10 11:22:04;;;;;;;3.50;2.27;;;13.70;73.50;;;;;;7388306;19;20153;-74
2022/03/10 11:24:58;;;;;;;4.03;2.13;;;13.90;73.10;;;;;;7389730;19;20137;-73
2022/03/10 11:27:29;;;;;;;2.33;1.87;;;13.80;72.40;;;;;;7387099;19;20170;-76
2022/03/10 11:29:57;;;;;;;2.53;2.05;;;13.70;72.30;;;;;;7385400;19;20158;-74
2022/03/10 11:32:30;;;;;;;4.50;2.13;;;13.80;72.50;;;;;;7390673;19;20157;-74
2022/03/10 11:35:01;;;;;;;2.27;1.90;;;13.90;72.50;;;;;;7392417;19;20134;-73
2022/03/10 11:37:45;;;;;;;2.65;1.65;;;14.00;72.40;;;;;;7390805;19;20238;-73
2022/03/10 11:40:13;;;;;;;2.57;1.90;;;14.10;72.30;;;;;;7391526;19;20619;-74
2022/03/10 11:42:40;;;;;;;2.70;1.60;;;14.30;71.80;;;;;;7389213;19;20461;-73
2022/03/10 11:45:19;;;;;;;2.80;2.13;;;14.30;71.30;;;;;;7387866;19;20158;-72
2022/03/10 11:47:46;;;;;;;2.78;1.92;;;14.20;71.50;;;;;;7389297;19;20139;-72
2022/03/10 11:50:24;;;;;;;2.15;1.90;;;14.20;70.90;;;;;;7390250;19;20126;-75
2022/03/10 11:52:55;;;;;;;3.90;1.85;;;14.30;71.10;;;;;;7390425;19;20134;-74
2022/03/10 11:55:23;;;;;;;2.55;1.88;;;14.40;71.20;;;;;;7392118;19;20135;-74
2022/03/10 11:57:55;;;;;;;3.85;2.47;;;14.60;70.50;;;;;;7387950;19;20202;-73
2022/03/10 12:00:46;;;;;;;6.55;3.85;;;14.60;70.20;;;;;;7387434;19;20150;-75
2022/03/10 12:03:46;;;;;;;4.35;2.20;;;14.70;69.70;;;;;;7388902;19;20131;-74
2022/03/10 12:06:17;;;;;;;2.78;1.92;;;14.60;69.60;;;;;;7390127;19;20158;-75
2022/03/10 12:09:01;;;;;;;2.25;1.60;;;14.70;68.70;;;;;;7392889;19;20130;-74
2022/03/10 12:11:47;;;;;;;2.50;1.77;;;14.80;68.10;;;;;;7390585;19;20167;-75
2022/03/10 12:14:31;;;;;;;2.33;1.83;;;14.70;68.60;;;;;;7387522;19;20214;-73
2022/03/10 12:16:57;;;;;;;2.50;2.00;;;14.80;68.10;;;;;;7384948;19;20946;-72
2022/03/10 12:20:00;;;;;;;4.38;3.33;;;14.90;67.70;;;;;;7389939;19;20149;-74
2022/03/10 12:22:30;;;;;;;2.50;1.80;;;15.00;67.40;;;;;;7388017;19;20161;-72
2022/03/10 12:25:20;;;;;;;2.58;1.70;;;15.10;66.00;;;;;;7387969;19;20142;-73
2022/03/10 12:27:53;;;;;;;2.38;1.77;;;15.00;66.40;;;;;;7388261;19;20185;-74
2022/03/10 12:30:27;;;;;;;2.38;1.70;;;15.00;66.80;;;;;;7387112;19;20146;-74
2022/03/10 12:32:55;;;;;;;2.75;1.77;;;15.10;66.10;;;;;;7390105;19;20158;-74
2022/03/10 12:35:26;;;;;;;2.63;1.90;;;15.10;65.30;;;;;;7389123;19;20137;-73
2022/03/10 12:37:52;;;;;;;3.83;2.17;;;15.20;65.10;;;;;;7389982;19;20242;-75
2022/03/10 12:40:25;;;;;;;3.67;2.08;;;15.00;65.10;;;;;;7386669;19;20154;-75
2022/03/10 12:42:57;;;;;;;2.78;1.98;;;15.00;64.70;;;;;;7388843;19;20135;-74
2022/03/10 12:45:23;;;;;;;3.72;2.08;;;15.10;64.50;;;;;;7388717;19;20603;-75
2022/03/10 12:48:04;;;;;;;3.63;2.38;;;15.10;64.90;;;;;;7387148;19;20975;-73
2022/03/10 12:50:33;;;;;;;2.88;2.20;;;15.10;64.40;;;;;;7382553;19;20127;-74
2022/03/10 12:53:07;;;;;;;4.13;2.17;;;15.00;64.60;;;;;;7382168;19;20237;-73